map of LZU home
LZU - Airport
Location
City:  Lawrenceville, Georgia, United States
Name:Gwinnett County - Briscoe Field
ICAO:KLZU
IATA:LZU
FAA LID:LZU

Details
Type:Airport (Airfield)
Use:Public/Civil
Latitude:3358'41"N (33.978076)
Longitude:8357'45"W (-83.962376)
Datum:WGS 1984
Elevation:1061 ft (323 m)
Variation:5.49W (WMM2015v2 magnetic declination)
-0.05 annual change
Runways:1
Longest:6000 × 100 ft (1829 × 30.5 m), paved

Time
Time Zone:UTC-5 (DST-4)
Local Time:

Weather
METAR:KLZU 041356Z 00000KT 10SM CLR 07/07 A3010 RMK AO2 SLP206 T00720067

Related Locations
Nearby:
Farthest:MQZ: 11351 mi / 18267 km
Margaret River [Margaret River Airport], WA, AU

Find:

   beyond  
but within

Other Information
Maps:
NOTAMs:
Links:
Sources:

  
  • flag of United States
  • flag of Georgia
  

Airport Diagram

Airport diagram for LZU

Airport diagram PDF from FAA

Sectional Chart

Flight Planning
at skyvector.com

Satellite Image

Google Maps Satellite view

 

Copyright © 2004-2019 Karl L. Swartz. All rights reserved.
The Great Circle Mapper name and logo are trademarks of the Great Circle Mapper.
All other trademarks mentioned herein belong to their respective owners.
Please see credits for attibutions and further copyright information.

  Follow gcmap on Facebook Follow gcmap on Twitter GCmap on LinkedIn

hCard Microformat

Geo Microformat